Harrisburg, AR (72432)

6:57 PM CST on February 09, 2016 (GMT -0600)
APRSWXNET | | Change Station
CLOSE
Current Station
Personal Weather Station
Location: Harrisburg, AR
Elevation: 246 ft
Nearby Weather Stations

Elev 246 ft 35.67 °N, 90.71 °W | Updated 39 minutes ago

Clear
Clear
33 °F
Feels Like 28 °F
N
5
Wind Variable Wind from NW
Gusts 0.0 mph

Today
High -- | Low -- °F
--% Chance of Precip.
Yesterday
High -- | Low -- °F
Precip. -- in
Pressure 30.16 in
Visibility 10.0 miles
Clouds Clear
Windchill 28 °F
Dew Point 20 °F
Humidity 59%
Rainfall in
Snow Depth Not available.
6:56 AM 5:38 PM
Waxing Crescent, 3% visible
METAR KJBR 100053Z AUTO 31003KT 10SM CLR M02/M11 A3015 RMK AO2 SLP212 T10171111
Pressure 30.16 in
Visibility 10.0 miles
Clouds Clear
Windchill 28 °F
Dew Point 20 °F
Humidity 59%
Rainfall in
Snow Depth Not available.
6:56 AM 5:38 PM
Waxing Crescent, 3% visible
METAR KJBR 100053Z AUTO 31003KT 10SM CLR M02/M11 A3015 RMK AO2 SLP212 T10171111

10-Day Weather Forecast

Almanac

Astronomy

Feb. 09, 2016 Rise Set
Actual Time
Civil Twilight
Nautical Twilight
Astronomical Twilight
Moon
Length of Visible Light
Length of Day
Tomorrow will be .
, % of the Moon is Illuminated

Today's Extremes

State Highs State Lows

Community

WunderPhotos

Upload Photos

1,891,752 photos uploaded!

WunderBlog® & News

Nearby

Air Quality

  Air Quality AQ Index Pollutant
Not available.

Snow Depth

Station Depth Elevation

Earthquake Activity

City Distance Mag. Time & Date
Minimum magnitude displayed is 2.5.

Coastal Water Temperatures

Place Temperature

Stations

Nearby Weather Stations

Station Location Temp. Windchill Dew Point Humidity Wind Precip. Elev Updated Type
                   

Watches & Warnings

There are currently no watches in effect.